Time;durP1;ratioP1;P1;durP2;ratioP2;P2;SDS_P1;SDS_P2;PMS_P1;PMS_P2;Temp;Humidity;BMP_temperature;BMP_pressure;BME280_temperature;BME280_humidity;BME280_pressure;Samples;Min_cycle;Max_cycle;Signal;HPM_P1;HPM_P2
2022/12/15 00:41:19;;;;;;;9.83;6.00;;;-2.50;99.90;;;;;;20460089;28;20321;-42
2022/12/15 00:51:20;;;;;;;8.70;4.82;;;-2.40;99.90;;;;;;20440406;28;20514;-41
2022/12/15 01:22:04;;;;;;;11.65;4.68;;;-2.60;99.90;;;;;;20427603;28;21737;-42
2022/12/15 01:32:05;;;;;;;8.07;4.75;;;-2.70;99.90;;;;;;20437192;28;20426;-41
2022/12/15 01:42:11;;;;;;;10.23;4.95;;;-2.70;99.90;;;;;;20491127;28;20426;-41
2022/12/15 01:52:14;;;;;;;8.05;4.68;;;-2.70;99.90;;;;;;20513535;28;20153;-42
2022/12/15 02:02:17;;;;;;;10.93;3.95;;;-2.70;99.90;;;;;;20524375;28;20623;-41
2022/12/15 02:12:46;;;;;;;10.02;5.07;;;-2.60;99.90;;;;;;20508875;28;20257;-41
2022/12/15 02:23:11;;;;;;;12.73;5.82;;;-2.70;99.90;;;;;;20534251;28;20066;-41
2022/12/15 02:33:28;;;;;;;8.35;4.25;;;-2.70;99.90;;;;;;20518149;28;20799;-41
2022/12/15 02:43:33;;;;;;;9.15;4.57;;;-2.80;99.90;;;;;;20508426;28;20082;-41
2022/12/15 02:54:11;;;;;;;9.32;5.63;;;-2.70;99.90;;;;;;20494775;28;20113;-41
2022/12/15 03:04:12;;;;;;;9.85;4.97;;;-2.80;99.90;;;;;;20514628;28;20753;-41
2022/12/15 03:14:13;;;;;;;7.28;4.28;;;-2.70;99.90;;;;;;20513149;28;20054;-41
2022/12/15 03:24:14;;;;;;;9.55;5.32;;;-2.60;99.90;;;;;;20502611;28;20690;-41
2022/12/15 03:34:16;;;;;;;11.85;5.13;;;-2.80;99.90;;;;;;20509338;28;20050;-41
2022/12/15 03:44:17;;;;;;;9.35;3.97;;;-2.80;99.90;;;;;;20507088;28;20188;-41
2022/12/15 03:54:18;;;;;;;7.82;3.80;;;-2.80;99.90;;;;;;20508297;28;20043;-41
2022/12/15 04:04:19;;;;;;;11.70;4.43;;;-2.80;99.90;;;;;;20522771;28;20380;-41
2022/12/15 04:14:20;;;;;;;8.15;4.22;;;-2.80;99.90;;;;;;20515766;28;20242;-41
2022/12/15 05:36:43;;;;;;;7.75;4.10;;;-2.60;99.90;;;;;;20511782;28;20051;-41
2022/12/15 05:46:44;;;;;;;11.20;4.68;;;-2.80;99.90;;;;;;20458497;28;20043;-41
2022/12/15 05:56:46;;;;;;;10.15;4.95;;;-2.70;99.90;;;;;;20448227;28;20040;-41
2022/12/15 06:06:47;;;;;;;8.98;4.35;;;-2.70;99.90;;;;;;20442192;28;20052;-41
2022/12/15 06:16:48;;;;;;;9.27;5.00;;;-2.70;99.90;;;;;;20447156;28;20094;-43
2022/12/15 06:26:49;;;;;;;8.68;4.63;;;-2.80;99.90;;;;;;20420155;28;20051;-41
2022/12/15 06:36:50;;;;;;;9.27;4.93;;;-2.50;99.90;;;;;;20473847;28;20046;-41
2022/12/15 06:46:51;;;;;;;11.60;5.70;;;-2.40;99.90;;;;;;20518338;28;20260;-40
2022/12/15 06:56:52;;;;;;;13.68;5.80;;;-2.40;99.90;;;;;;20501926;28;20051;-40
2022/12/15 07:06:53;;;;;;;10.20;4.78;;;-2.20;99.90;;;;;;20488681;28;20101;-40
2022/12/15 07:16:54;;;;;;;10.63;5.82;;;-2.20;99.90;;;;;;20471537;28;20181;-40
2022/12/15 07:26:55;;;;;;;10.18;5.18;;;-2.10;99.90;;;;;;20484510;28;20062;-40
2022/12/15 07:36:56;;;;;;;7.68;5.40;;;-2.00;99.90;;;;;;20509151;28;20519;-40
2022/12/15 07:46:57;;;;;;;7.38;4.18;;;-1.90;99.90;;;;;;20474900;28;20139;-40
2022/12/15 07:56:58;;;;;;;13.05;5.57;;;-2.00;99.90;;;;;;20440118;28;20050;-40
2022/12/15 08:06:59;;;;;;;7.72;5.53;;;-2.10;99.90;;;;;;20439399;28;20475;-40
2022/12/15 08:17:01;;;;;;;10.63;6.10;;;-2.10;99.90;;;;;;20440145;28;20705;-40
2022/12/15 08:27:02;;;;;;;15.13;6.03;;;-2.00;99.90;;;;;;20429026;28;20055;-40
2022/12/15 08:37:03;;;;;;;10.55;6.15;;;-1.90;99.90;;;;;;20440035;28;20048;-44
2022/12/15 08:47:04;;;;;;;11.75;6.90;;;-1.90;99.90;;;;;;20451447;28;20562;-40
2022/12/15 08:57:05;;;;;;;9.60;5.75;;;-1.80;99.90;;;;;;20412922;28;20181;-40
2022/12/15 09:07:06;;;;;;;12.52;6.97;;;-1.50;99.90;;;;;;20455888;28;20059;-40
2022/12/15 09:17:07;;;;;;;12.52;6.47;;;-1.40;99.90;;;;;;20450568;28;20451;-40
2022/12/15 09:27:08;;;;;;;16.10;8.63;;;-1.20;99.90;;;;;;20455763;28;20059;-40
2022/12/15 09:37:10;;;;;;;21.08;9.00;;;-1.00;99.90;;;;;;20459417;28;21244;-40
2022/12/15 09:47:33;;;;;;;10.77;5.35;;;-0.60;99.90;;;;;;20525866;28;20066;-40
2022/12/15 09:57:46;;;;;;;9.32;5.97;;;-0.30;99.90;;;;;;20510102;28;20105;-41
2022/12/15 10:07:49;;;;;;;14.02;7.55;;;-0.10;99.90;;;;;;20491251;28;20542;-41
2022/12/15 10:18:19;;;;;;;14.98;6.85;;;0.00;99.90;;;;;;20507337;28;20167;-41
2022/12/15 10:28:51;;;;;;;10.50;7.03;;;0.10;99.90;;;;;;20506854;28;20844;-41
2022/12/15 10:38:52;;;;;;;18.05;7.40;;;0.50;99.90;;;;;;20449602;28;20917;-41
2022/12/15 10:49:21;;;;;;;17.48;6.40;;;1.30;99.90;;;;;;20490616;28;20050;-41
2022/12/15 10:59:28;;;;;;;11.32;6.70;;;2.00;99.90;;;;;;20463649;28;21821;-41
2022/12/15 11:09:34;;;;;;;;;;;2.20;99.90;;;;;;20425121;28;20444;-41
2022/12/15 11:19:59;;;;;;;15.05;8.57;;;2.30;99.90;;;;;;20426526;28;20020;-41
2022/12/15 11:30:17;;;;;;;15.48;6.10;;;3.40;99.90;;;;;;20443947;28;20845;-41
2022/12/15 11:40:18;;;;;;;;;;;2.90;99.90;;;;;;20447250;28;20047;-41
2022/12/15 11:50:28;;;;;;;12.55;6.05;;;3.00;99.90;;;;;;20535393;28;20370;-41
2022/12/15 12:00:38;;;;;;;10.00;5.60;;;3.50;99.90;;;;;;20529331;28;20051;-41
2022/12/15 12:10:58;;;;;;;11.68;6.07;;;3.30;99.90;;;;;;20514500;28;20125;-41
2022/12/15 12:21:10;;;;;;;13.43;5.55;;;4.10;99.90;;;;;;20516098;28;20372;-41
2022/12/15 12:31:24;;;;;;;15.10;6.00;;;4.90;99.80;;;;;;20509448;28;20245;-41
2022/12/15 12:41:33;;;;;;;9.55;5.05;;;5.80;98.40;;;;;;20428056;28;20134;-41
2022/12/15 12:51:39;;;;;;;13.45;6.47;;;6.00;96.20;;;;;;20427736;28;20150;-41
2022/12/15 13:01:40;;;;;;;13.93;7.80;;;5.70;97.00;;;;;;20427653;28;20390;-41
2022/12/15 13:11:55;;;;;;;7.75;4.70;;;5.20;99.90;;;;;;20428925;28;20120;-41
2022/12/15 13:21:56;;;;;;;11.23;6.00;;;4.70;99.90;;;;;;20427557;28;20795;-41
2022/12/15 13:31:57;;;;;;;10.13;5.63;;;4.30;99.90;;;;;;20444252;28;20556;-41
2022/12/15 13:42:04;;;;;;;12.90;4.57;;;4.00;99.90;;;;;;20467523;28;20468;-41
2022/12/15 13:52:21;;;;;;;13.37;6.90;;;3.90;99.90;;;;;;20522496;28;21870;-42
2022/12/15 14:02:34;;;;;;;15.25;5.90;;;3.80;99.90;;;;;;20495780;28;20043;-41
2022/12/15 14:12:38;;;;;;;10.80;5.32;;;3.60;99.90;;;;;;20500645;28;20177;-41
2022/12/15 14:22:42;;;;;;;10.13;5.13;;;3.40;99.90;;;;;;20512089;28;20069;-41
2022/12/15 14:32:45;;;;;;;15.13;7.20;;;3.20;99.90;;;;;;20495899;28;20074;-41
2022/12/15 14:42:46;;;;;;;12.13;6.28;;;3.20;99.90;;;;;;20507053;28;20169;-41
2022/12/15 14:52:58;;;;;;;15.43;7.68;;;3.10;99.90;;;;;;20504334;28;20491;-42
2022/12/15 15:03:14;;;;;;;15.32;7.53;;;2.90;99.90;;;;;;20513122;28;20693;-42
2022/12/15 15:13:20;;;;;;;13.52;7.47;;;2.80;99.90;;;;;;20509774;28;20893;-41
2022/12/15 15:23:21;;;;;;;19.13;7.40;;;2.70;99.90;;;;;;20517318;28;20125;-41
2022/12/15 15:33:23;;;;;;;10.63;6.70;;;2.50;99.90;;;;;;20517667;28;20129;-42
2022/12/15 15:43:26;;;;;;;13.25;8.20;;;2.30;99.90;;;;;;20509826;28;20070;-42
2022/12/15 15:53:30;;;;;;;13.60;8.13;;;2.20;99.90;;;;;;20515700;28;20128;-41
2022/12/15 16:03:31;;;;;;;14.45;8.57;;;2.00;99.90;;;;;;20501901;28;20066;-42
2022/12/15 16:13:32;;;;;;;17.65;8.25;;;2.00;99.90;;;;;;20469729;28;20181;-42
2022/12/15 16:23:33;;;;;;;14.40;8.98;;;1.80;99.90;;;;;;20479338;28;20119;-42
2022/12/15 16:33:35;;;;;;;15.90;9.68;;;1.70;99.90;;;;;;20456682;28;20186;-42
2022/12/15 16:43:36;;;;;;;16.40;9.95;;;1.70;99.90;;;;;;20449553;28;20070;-42
2022/12/15 16:53:39;;;;;;;19.98;10.48;;;1.70;99.90;;;;;;20455274;28;20114;-41
2022/12/15 17:03:41;;;;;;;25.75;12.25;;;1.70;99.90;;;;;;20466665;28;20074;-42
2022/12/15 17:13:46;;;;;;;31.75;14.38;;;1.60;99.90;;;;;;20440942;28;20705;-42
2022/12/15 17:23:52;;;;;;;30.02;15.07;;;1.60;99.90;;;;;;20448604;28;20039;-42
2022/12/15 17:33:53;;;;;;;26.30;16.23;;;1.50;99.90;;;;;;20438744;28;20047;-42
2022/12/15 17:43:54;;;;;;;18.00;10.10;;;1.60;99.90;;;;;;20438539;28;20447;-42
2022/12/15 17:53:55;;;;;;;14.82;9.85;;;1.60;99.90;;;;;;20437537;28;20472;-41
2022/12/15 18:03:56;;;;;;;19.30;11.50;;;1.50;99.90;;;;;;20442315;28;20506;-41
2022/12/15 18:13:57;;;;;;;19.90;10.35;;;1.40;99.90;;;;;;20431661;28;20666;-42
2022/12/15 18:23:58;;;;;;;25.20;12.52;;;1.30;99.90;;;;;;20426729;28;20327;-41
2022/12/15 18:34:00;;;;;;;35.25;16.30;;;1.20;99.90;;;;;;20431027;28;20554;-41
2022/12/15 18:44:01;;;;;;;30.63;15.13;;;1.10;99.90;;;;;;20481540;28;20872;-42
2022/12/15 18:54:02;;;;;;;22.63;12.57;;;1.00;99.90;;;;;;20515894;28;20043;-41
2022/12/15 19:04:03;;;;;;;27.73;16.15;;;1.00;99.90;;;;;;20502979;28;20430;-42
2022/12/15 19:14:38;;;;;;;29.23;15.00;;;0.80;99.90;;;;;;20513603;28;20457;-42
2022/12/15 19:34:52;;;;;;;35.42;16.67;;;0.50;99.90;;;;;;20507070;28;20781;-42
2022/12/15 19:44:53;;;;;;;27.60;15.77;;;0.40;99.90;;;;;;20434588;28;20558;-42
2022/12/15 19:54:54;;;;;;;28.45;16.60;;;0.30;99.90;;;;;;20427090;28;20051;-42
2022/12/15 20:04:55;;;;;;;31.45;18.25;;;0.30;99.90;;;;;;20413184;28;20616;-42
2022/12/15 20:14:56;;;;;;;35.03;18.35;;;0.40;99.90;;;;;;20422612;28;20487;-42
2022/12/15 20:24:57;;;;;;;31.20;17.52;;;0.40;99.90;;;;;;20414397;28;20174;-42
2022/12/15 20:34:58;;;;;;;31.50;16.13;;;0.60;99.90;;;;;;20421074;28;20071;-42
2022/12/15 20:44:59;;;;;;;31.70;16.38;;;0.70;99.90;;;;;;20480624;28;20334;-42
2022/12/15 20:55:01;;;;;;;35.58;18.05;;;0.80;99.90;;;;;;20492363;28;21067;-42
2022/12/15 21:05:03;;;;;;;47.88;23.38;;;0.70;99.90;;;;;;20496857;28;20066;-43
2022/12/15 21:15:16;;;;;;;35.85;18.45;;;0.50;99.90;;;;;;20505043;28;20145;-42
2022/12/15 21:25:25;;;;;;;31.63;18.33;;;0.40;99.90;;;;;;20482690;28;20081;-42
2022/12/15 21:35:27;;;;;;;38.08;18.40;;;0.50;99.90;;;;;;20495960;28;20074;-42
2022/12/15 21:45:28;;;;;;;34.92;17.38;;;0.60;99.90;;;;;;20496941;28;20044;-42
2022/12/15 21:55:29;;;;;;;34.45;16.38;;;0.70;99.90;;;;;;20514194;28;20043;-42
2022/12/15 22:05:31;;;;;;;33.03;16.98;;;0.80;99.90;;;;;;20530551;28;20070;-42
2022/12/15 22:15:32;;;;;;;27.63;17.00;;;0.80;99.90;;;;;;20492427;28;20067;-42
2022/12/15 22:25:33;;;;;;;26.38;15.90;;;0.80;99.90;;;;;;20464112;28;20111;-42
2022/12/15 22:35:34;;;;;;;31.95;14.85;;;0.90;99.90;;;;;;20501687;28;20124;-42
2022/12/15 22:45:35;;;;;;;26.77;15.90;;;1.00;99.90;;;;;;20446644;28;20043;-42
2022/12/15 22:55:36;;;;;;;24.42;15.43;;;1.00;99.90;;;;;;20362924;28;20147;-42
2022/12/15 23:05:41;;;;;;;26.48;13.82;;;1.00;99.90;;;;;;20473322;28;20086;-42
2022/12/15 23:26:02;;;;;;;26.38;14.88;;;0.70;99.90;;;;;;20429759;28;21934;-41
2022/12/15 23:36:03;;;;;;;20.73;14.43;;;0.50;99.90;;;;;;20423173;28;20169;-42
2022/12/15 23:46:05;;;;;;;17.17;9.18;;;0.30;99.90;;;;;;20399952;28;20078;-42
2022/12/15 23:56:21;;;;;;;14.98;8.48;;;0.50;99.90;;;;;;20413355;28;20083;-42
